sensor_id;sensor_type;location;lat;lon;timestamp;P1;durP1;ratioP1;P2;durP2;ratioP2
68989;SDS011;56046;47.270;11.368;2023-06-22T00:02:18;5.80;;;2.00;;
68989;SDS011;56046;47.270;11.368;2023-06-22T00:04:43;0.70;;;0.70;;
68989;SDS011;56046;47.270;11.368;2023-06-22T00:07:09;1.53;;;1.13;;
68989;SDS011;56046;47.270;11.368;2023-06-22T00:09:34;2.23;;;1.80;;
68989;SDS011;56046;47.270;11.368;2023-06-22T00:12:01;1.63;;;1.37;;
68989;SDS011;56046;47.270;11.368;2023-06-22T00:14:26;0.93;;;0.93;;
68989;SDS011;56046;47.270;11.368;2023-06-22T00:16:52;1.93;;;1.50;;
68989;SDS011;56046;47.270;11.368;2023-06-22T00:19:20;2.30;;;1.88;;
68989;SDS011;56046;47.270;11.368;2023-06-22T00:21:46;0.50;;;0.50;;
68989;SDS011;56046;47.270;11.368;2023-06-22T00:24:12;8.70;;;2.67;;
68989;SDS011;56046;47.270;11.368;2023-06-22T00:26:37;1.53;;;1.33;;
68989;SDS011;56046;47.270;11.368;2023-06-22T00:29:02;1.00;;;0.90;;
68989;SDS011;56046;47.270;11.368;2023-06-22T00:31:28;1.60;;;1.47;;
68989;SDS011;56046;47.270;11.368;2023-06-22T00:33:53;2.53;;;2.33;;
68989;SDS011;56046;47.270;11.368;2023-06-22T00:36:18;1.37;;;1.27;;
68989;SDS011;56046;47.270;11.368;2023-06-22T00:38:44;1.63;;;1.53;;
68989;SDS011;56046;47.270;11.368;2023-06-22T00:41:09;2.20;;;0.97;;
68989;SDS011;56046;47.270;11.368;2023-06-22T00:43:34;0.73;;;0.73;;
68989;SDS011;56046;47.270;11.368;2023-06-22T00:46:00;1.63;;;1.20;;
68989;SDS011;56046;47.270;11.368;2023-06-22T00:48:25;3.07;;;1.10;;
68989;SDS011;56046;47.270;11.368;2023-06-22T00:50:50;2.37;;;1.00;;
68989;SDS011;56046;47.270;11.368;2023-06-22T00:53:18;9.07;;;2.15;;
68989;SDS011;56046;47.270;11.368;2023-06-22T00:55:44;1.13;;;1.03;;
68989;SDS011;56046;47.270;11.368;2023-06-22T00:58:16;4.07;;;1.50;;
68989;SDS011;56046;47.270;11.368;2023-06-22T01:00:41;6.60;;;2.73;;
68989;SDS011;56046;47.270;11.368;2023-06-22T01:03:07;1.40;;;1.30;;
68989;SDS011;56046;47.270;11.368;2023-06-22T01:05:34;4.60;;;1.00;;
68989;SDS011;56046;47.270;11.368;2023-06-22T01:08:12;2.83;;;1.00;;
68989;SDS011;56046;47.270;11.368;2023-06-22T01:10:43;1.65;;;1.55;;
68989;SDS011;56046;47.270;11.368;2023-06-22T01:13:23;5.00;;;1.53;;
68989;SDS011;56046;47.270;11.368;2023-06-22T01:15:58;1.23;;;1.08;;
68989;SDS011;56046;47.270;11.368;2023-06-22T01:18:25;1.92;;;1.73;;
68989;SDS011;56046;47.270;11.368;2023-06-22T01:20:53;2.75;;;2.22;;
68989;SDS011;56046;47.270;11.368;2023-06-22T01:28:53;11.88;;;7.30;;
68989;SDS011;56046;47.270;11.368;2023-06-22T01:31:20;26.60;;;15.38;;
68989;SDS011;56046;47.270;11.368;2023-06-22T01:33:51;33.08;;;16.67;;
68989;SDS011;56046;47.270;11.368;2023-06-22T01:36:17;32.20;;;15.00;;
68989;SDS011;56046;47.270;11.368;2023-06-22T01:38:42;26.80;;;13.97;;
68989;SDS011;56046;47.270;11.368;2023-06-22T01:41:08;32.08;;;16.00;;
68989;SDS011;56046;47.270;11.368;2023-06-22T01:43:34;31.93;;;15.40;;
68989;SDS011;56046;47.270;11.368;2023-06-22T01:46:02;27.50;;;15.30;;
68989;SDS011;56046;47.270;11.368;2023-06-22T01:48:28;30.45;;;14.85;;
68989;SDS011;56046;47.270;11.368;2023-06-22T01:50:54;29.45;;;14.82;;
68989;SDS011;56046;47.270;11.368;2023-06-22T01:53:23;27.53;;;14.43;;
68989;SDS011;56046;47.270;11.368;2023-06-22T01:55:48;28.92;;;14.80;;
68989;SDS011;56046;47.270;11.368;2023-06-22T01:58:14;28.37;;;15.07;;
68989;SDS011;56046;47.270;11.368;2023-06-22T02:00:40;27.15;;;14.48;;
68989;SDS011;56046;47.270;11.368;2023-06-22T02:03:11;31.30;;;13.13;;
68989;SDS011;56046;47.270;11.368;2023-06-22T02:05:37;26.15;;;11.95;;
68989;SDS011;56046;47.270;11.368;2023-06-22T02:10:31;25.13;;;12.30;;
68989;SDS011;56046;47.270;11.368;2023-06-22T02:12:57;22.40;;;11.70;;
68989;SDS011;56046;47.270;11.368;2023-06-22T02:15:23;25.30;;;11.90;;
68989;SDS011;56046;47.270;11.368;2023-06-22T02:17:48;25.17;;;11.73;;
68989;SDS011;56046;47.270;11.368;2023-06-22T02:20:14;26.27;;;14.07;;
68989;SDS011;56046;47.270;11.368;2023-06-22T02:22:39;26.53;;;13.23;;
68989;SDS011;56046;47.270;11.368;2023-06-22T02:25:05;28.43;;;13.60;;
68989;SDS011;56046;47.270;11.368;2023-06-22T02:27:30;31.00;;;14.23;;
68989;SDS011;56046;47.270;11.368;2023-06-22T02:29:56;33.30;;;14.63;;
68989;SDS011;56046;47.270;11.368;2023-06-22T02:32:21;32.50;;;16.48;;
68989;SDS011;56046;47.270;11.368;2023-06-22T02:34:46;32.87;;;15.80;;
68989;SDS011;56046;47.270;11.368;2023-06-22T02:37:12;32.53;;;15.98;;
68989;SDS011;56046;47.270;11.368;2023-06-22T02:39:39;32.30;;;16.98;;
68989;SDS011;56046;47.270;11.368;2023-06-22T02:42:05;34.47;;;17.03;;
68989;SDS011;56046;47.270;11.368;2023-06-22T02:44:30;33.17;;;18.10;;
68989;SDS011;56046;47.270;11.368;2023-06-22T02:46:55;33.67;;;17.77;;
68989;SDS011;56046;47.270;11.368;2023-06-22T02:49:21;39.50;;;19.33;;
68989;SDS011;56046;47.270;11.368;2023-06-22T02:51:47;37.63;;;19.57;;
68989;SDS011;56046;47.270;11.368;2023-06-22T02:54:12;35.53;;;18.15;;
68989;SDS011;56046;47.270;11.368;2023-06-22T02:56:37;34.60;;;18.23;;
68989;SDS011;56046;47.270;11.368;2023-06-22T02:59:03;33.97;;;17.70;;
68989;SDS011;56046;47.270;11.368;2023-06-22T03:01:28;36.50;;;18.27;;
68989;SDS011;56046;47.270;11.368;2023-06-22T03:03:55;36.25;;;18.33;;
68989;SDS011;56046;47.270;11.368;2023-06-22T03:06:20;34.80;;;18.00;;
68989;SDS011;56046;47.270;11.368;2023-06-22T03:08:48;37.50;;;19.67;;
68989;SDS011;56046;47.270;11.368;2023-06-22T03:11:14;35.90;;;18.42;;
68989;SDS011;56046;47.270;11.368;2023-06-22T03:13:39;32.83;;;17.53;;
68989;SDS011;56046;47.270;11.368;2023-06-22T03:16:04;27.60;;;16.37;;
68989;SDS011;56046;47.270;11.368;2023-06-22T03:18:30;33.00;;;16.40;;
68989;SDS011;56046;47.270;11.368;2023-06-22T03:20:55;38.47;;;16.23;;
68989;SDS011;56046;47.270;11.368;2023-06-22T03:23:20;28.67;;;15.63;;
68989;SDS011;56046;47.270;11.368;2023-06-22T03:25:45;27.63;;;14.83;;
68989;SDS011;56046;47.270;11.368;2023-06-22T03:28:10;29.37;;;15.43;;
68989;SDS011;56046;47.270;11.368;2023-06-22T03:30:36;30.37;;;14.90;;
68989;SDS011;56046;47.270;11.368;2023-06-22T03:33:01;28.60;;;15.17;;
68989;SDS011;56046;47.270;11.368;2023-06-22T03:35:26;31.33;;;15.57;;
68989;SDS011;56046;47.270;11.368;2023-06-22T03:37:51;28.97;;;16.87;;
68989;SDS011;56046;47.270;11.368;2023-06-22T03:40:17;35.50;;;16.83;;
68989;SDS011;56046;47.270;11.368;2023-06-22T03:42:42;32.07;;;17.80;;
68989;SDS011;56046;47.270;11.368;2023-06-22T03:45:07;34.20;;;17.27;;
68989;SDS011;56046;47.270;11.368;2023-06-22T03:47:33;34.35;;;17.38;;
68989;SDS011;56046;47.270;11.368;2023-06-22T03:49:58;29.60;;;16.13;;
68989;SDS011;56046;47.270;11.368;2023-06-22T03:52:24;31.50;;;17.43;;
68989;SDS011;56046;47.270;11.368;2023-06-22T03:54:50;34.15;;;17.80;;
68989;SDS011;56046;47.270;11.368;2023-06-22T03:57:15;35.53;;;18.00;;
68989;SDS011;56046;47.270;11.368;2023-06-22T03:59:41;31.10;;;17.20;;
68989;SDS011;56046;47.270;11.368;2023-06-22T04:02:06;31.67;;;16.40;;
68989;SDS011;56046;47.270;11.368;2023-06-22T04:04:31;30.30;;;16.07;;
68989;SDS011;56046;47.270;11.368;2023-06-22T04:06:56;32.03;;;16.27;;
68989;SDS011;56046;47.270;11.368;2023-06-22T04:09:22;33.43;;;16.67;;
68989;SDS011;56046;47.270;11.368;2023-06-22T04:11:47;32.20;;;17.17;;
68989;SDS011;56046;47.270;11.368;2023-06-22T04:14:12;28.57;;;15.80;;
68989;SDS011;56046;47.270;11.368;2023-06-22T04:16:38;31.15;;;15.15;;
68989;SDS011;56046;47.270;11.368;2023-06-22T04:19:03;29.03;;;15.97;;
68989;SDS011;56046;47.270;11.368;2023-06-22T04:21:28;31.77;;;15.50;;
68989;SDS011;56046;47.270;11.368;2023-06-22T04:23:53;25.83;;;15.17;;
68989;SDS011;56046;47.270;11.368;2023-06-22T04:26:19;26.83;;;14.40;;
68989;SDS011;56046;47.270;11.368;2023-06-22T04:28:45;26.67;;;15.18;;
68989;SDS011;56046;47.270;11.368;2023-06-22T04:31:16;25.13;;;13.87;;
68989;SDS011;56046;47.270;11.368;2023-06-22T04:33:42;20.98;;;13.88;;
68989;SDS011;56046;47.270;11.368;2023-06-22T04:36:07;23.53;;;13.73;;
68989;SDS011;56046;47.270;11.368;2023-06-22T04:38:32;23.70;;;12.73;;
68989;SDS011;56046;47.270;11.368;2023-06-22T04:40:58;26.13;;;13.30;;
68989;SDS011;56046;47.270;11.368;2023-06-22T04:43:23;28.95;;;14.15;;
68989;SDS011;56046;47.270;11.368;2023-06-22T04:45:49;27.23;;;12.97;;
68989;SDS011;56046;47.270;11.368;2023-06-22T04:48:17;24.15;;;13.48;;
68989;SDS011;56046;47.270;11.368;2023-06-22T04:50:42;29.10;;;12.90;;
68989;SDS011;56046;47.270;11.368;2023-06-22T04:53:09;24.25;;;13.63;;
68989;SDS011;56046;47.270;11.368;2023-06-22T04:55:37;24.50;;;13.13;;
68989;SDS011;56046;47.270;11.368;2023-06-22T04:58:06;25.45;;;14.00;;
68989;SDS011;56046;47.270;11.368;2023-06-22T05:00:32;26.45;;;13.85;;
68989;SDS011;56046;47.270;11.368;2023-06-22T05:02:57;24.13;;;12.83;;
68989;SDS011;56046;47.270;11.368;2023-06-22T05:05:26;20.73;;;12.82;;
68989;SDS011;56046;47.270;11.368;2023-06-22T05:07:51;23.10;;;14.50;;
68989;SDS011;56046;47.270;11.368;2023-06-22T05:10:24;21.73;;;12.60;;
68989;SDS011;56046;47.270;11.368;2023-06-22T05:12:49;25.10;;;11.93;;
68989;SDS011;56046;47.270;11.368;2023-06-22T05:15:15;22.47;;;13.30;;
68989;SDS011;56046;47.270;11.368;2023-06-22T05:17:40;22.57;;;13.70;;
68989;SDS011;56046;47.270;11.368;2023-06-22T05:20:08;30.23;;;12.40;;
68989;SDS011;56046;47.270;11.368;2023-06-22T05:22:34;22.67;;;12.43;;
68989;SDS011;56046;47.270;11.368;2023-06-22T05:24:59;25.13;;;13.40;;
68989;SDS011;56046;47.270;11.368;2023-06-22T05:27:24;22.10;;;12.33;;
68989;SDS011;56046;47.270;11.368;2023-06-22T05:29:49;22.93;;;12.27;;
68989;SDS011;56046;47.270;11.368;2023-06-22T05:32:15;23.00;;;12.03;;
68989;SDS011;56046;47.270;11.368;2023-06-22T05:34:40;29.30;;;13.43;;
68989;SDS011;56046;47.270;11.368;2023-06-22T05:37:05;28.63;;;13.60;;
68989;SDS011;56046;47.270;11.368;2023-06-22T05:39:31;22.98;;;13.43;;
68989;SDS011;56046;47.270;11.368;2023-06-22T05:41:56;24.90;;;13.23;;
68989;SDS011;56046;47.270;11.368;2023-06-22T05:44:22;25.87;;;12.53;;
68989;SDS011;56046;47.270;11.368;2023-06-22T05:46:47;25.17;;;13.03;;
68989;SDS011;56046;47.270;11.368;2023-06-22T05:49:13;28.48;;;13.20;;
68989;SDS011;56046;47.270;11.368;2023-06-22T05:51:39;23.55;;;13.95;;
68989;SDS011;56046;47.270;11.368;2023-06-22T05:54:04;30.10;;;12.87;;
68989;SDS011;56046;47.270;11.368;2023-06-22T05:56:29;22.67;;;13.57;;
68989;SDS011;56046;47.270;11.368;2023-06-22T05:58:54;21.40;;;12.80;;
68989;SDS011;56046;47.270;11.368;2023-06-22T06:01:20;33.20;;;13.37;;
68989;SDS011;56046;47.270;11.368;2023-06-22T06:03:45;26.92;;;13.88;;
68989;SDS011;56046;47.270;11.368;2023-06-22T06:06:10;27.30;;;13.83;;
68989;SDS011;56046;47.270;11.368;2023-06-22T06:08:36;22.10;;;12.53;;
68989;SDS011;56046;47.270;11.368;2023-06-22T06:11:01;24.90;;;13.17;;
68989;SDS011;56046;47.270;11.368;2023-06-22T06:13:27;23.23;;;12.37;;
68989;SDS011;56046;47.270;11.368;2023-06-22T06:15:52;24.13;;;12.17;;
68989;SDS011;56046;47.270;11.368;2023-06-22T06:18:19;29.45;;;13.18;;
68989;SDS011;56046;47.270;11.368;2023-06-22T06:20:45;24.67;;;12.60;;
68989;SDS011;56046;47.270;11.368;2023-06-22T06:23:10;24.67;;;11.60;;
68989;SDS011;56046;47.270;11.368;2023-06-22T06:25:35;22.30;;;10.70;;
68989;SDS011;56046;47.270;11.368;2023-06-22T06:28:00;20.47;;;10.60;;
68989;SDS011;56046;47.270;11.368;2023-06-22T06:30:26;24.13;;;9.80;;
68989;SDS011;56046;47.270;11.368;2023-06-22T06:32:51;23.00;;;10.27;;
68989;SDS011;56046;47.270;11.368;2023-06-22T06:35:16;24.53;;;11.37;;
68989;SDS011;56046;47.270;11.368;2023-06-22T06:37:44;27.17;;;11.67;;
68989;SDS011;56046;47.270;11.368;2023-06-22T06:40:11;18.40;;;10.43;;
68989;SDS011;56046;47.270;11.368;2023-06-22T06:42:40;21.35;;;11.45;;
68989;SDS011;56046;47.270;11.368;2023-06-22T06:45:09;23.42;;;11.15;;
68989;SDS011;56046;47.270;11.368;2023-06-22T06:47:35;21.67;;;11.43;;
68989;SDS011;56046;47.270;11.368;2023-06-22T06:50:00;26.17;;;11.93;;
68989;SDS011;56046;47.270;11.368;2023-06-22T06:52:25;22.73;;;11.17;;
68989;SDS011;56046;47.270;11.368;2023-06-22T06:54:51;23.33;;;11.37;;
68989;SDS011;56046;47.270;11.368;2023-06-22T06:57:17;21.97;;;11.30;;
68989;SDS011;56046;47.270;11.368;2023-06-22T06:59:42;24.23;;;11.00;;
68989;SDS011;56046;47.270;11.368;2023-06-22T07:02:08;17.57;;;10.80;;
68989;SDS011;56046;47.270;11.368;2023-06-22T07:04:33;21.80;;;10.70;;
68989;SDS011;56046;47.270;11.368;2023-06-22T07:07:00;20.53;;;10.90;;
68989;SDS011;56046;47.270;11.368;2023-06-22T07:09:26;21.02;;;11.50;;
68989;SDS011;56046;47.270;11.368;2023-06-22T07:11:51;23.73;;;11.87;;
68989;SDS011;56046;47.270;11.368;2023-06-22T07:14:16;22.20;;;10.80;;
68989;SDS011;56046;47.270;11.368;2023-06-22T07:16:42;24.25;;;11.10;;
68989;SDS011;56046;47.270;11.368;2023-06-22T07:19:07;23.47;;;11.50;;
68989;SDS011;56046;47.270;11.368;2023-06-22T07:21:32;20.20;;;11.17;;
68989;SDS011;56046;47.270;11.368;2023-06-22T07:23:57;18.83;;;10.90;;
68989;SDS011;56046;47.270;11.368;2023-06-22T07:26:23;21.20;;;10.77;;
68989;SDS011;56046;47.270;11.368;2023-06-22T07:28:48;18.73;;;11.13;;
68989;SDS011;56046;47.270;11.368;2023-06-22T07:31:15;21.40;;;9.30;;
68989;SDS011;56046;47.270;11.368;2023-06-22T07:33:41;21.10;;;9.43;;
68989;SDS011;56046;47.270;11.368;2023-06-22T07:36:06;21.52;;;10.90;;
68989;SDS011;56046;47.270;11.368;2023-06-22T07:38:33;20.10;;;10.63;;
68989;SDS011;56046;47.270;11.368;2023-06-22T07:40:58;22.42;;;10.18;;
68989;SDS011;56046;47.270;11.368;2023-06-22T07:43:23;21.90;;;11.30;;
68989;SDS011;56046;47.270;11.368;2023-06-22T07:45:49;21.87;;;10.53;;
68989;SDS011;56046;47.270;11.368;2023-06-22T07:48:19;20.33;;;10.77;;
68989;SDS011;56046;47.270;11.368;2023-06-22T07:50:44;18.70;;;9.87;;
68989;SDS011;56046;47.270;11.368;2023-06-22T07:53:10;18.93;;;10.70;;
68989;SDS011;56046;47.270;11.368;2023-06-22T07:55:35;15.43;;;8.07;;
68989;SDS011;56046;47.270;11.368;2023-06-22T07:58:00;19.30;;;8.90;;
68989;SDS011;56046;47.270;11.368;2023-06-22T08:00:25;19.93;;;9.47;;
68989;SDS011;56046;47.270;11.368;2023-06-22T08:02:51;18.17;;;9.80;;
68989;SDS011;56046;47.270;11.368;2023-06-22T08:05:16;18.83;;;8.87;;
68989;SDS011;56046;47.270;11.368;2023-06-22T08:07:42;17.88;;;8.82;;
68989;SDS011;56046;47.270;11.368;2023-06-22T08:10:12;17.85;;;9.63;;
68989;SDS011;56046;47.270;11.368;2023-06-22T08:12:38;20.92;;;9.57;;
68989;SDS011;56046;47.270;11.368;2023-06-22T08:15:03;17.07;;;10.80;;
68989;SDS011;56046;47.270;11.368;2023-06-22T08:17:29;19.43;;;10.17;;
68989;SDS011;56046;47.270;11.368;2023-06-22T08:19:54;17.43;;;8.63;;
68989;SDS011;56046;47.270;11.368;2023-06-22T08:22:19;19.37;;;9.80;;
68989;SDS011;56046;47.270;11.368;2023-06-22T08:24:45;21.33;;;8.53;;
68989;SDS011;56046;47.270;11.368;2023-06-22T08:27:10;22.03;;;6.63;;
68989;SDS011;56046;47.270;11.368;2023-06-22T08:29:40;15.70;;;6.57;;
68989;SDS011;56046;47.270;11.368;2023-06-22T08:32:07;17.08;;;7.28;;
68989;SDS011;56046;47.270;11.368;2023-06-22T08:34:32;18.27;;;8.10;;
68989;SDS011;56046;47.270;11.368;2023-06-22T08:36:59;19.08;;;8.38;;
68989;SDS011;56046;47.270;11.368;2023-06-22T08:39:25;21.70;;;8.87;;
68989;SDS011;56046;47.270;11.368;2023-06-22T08:41:50;17.73;;;8.98;;
68989;SDS011;56046;47.270;11.368;2023-06-22T08:44:16;19.30;;;9.57;;
68989;SDS011;56046;47.270;11.368;2023-06-22T08:46:42;18.40;;;9.15;;
68989;SDS011;56046;47.270;11.368;2023-06-22T08:49:07;19.67;;;8.73;;
68989;SDS011;56046;47.270;11.368;2023-06-22T08:51:34;22.25;;;8.45;;
68989;SDS011;56046;47.270;11.368;2023-06-22T08:53:59;16.13;;;8.50;;
68989;SDS011;56046;47.270;11.368;2023-06-22T08:56:25;19.20;;;9.13;;
68989;SDS011;56046;47.270;11.368;2023-06-22T08:58:50;20.53;;;9.77;;
68989;SDS011;56046;47.270;11.368;2023-06-22T09:01:15;22.23;;;9.60;;
68989;SDS011;56046;47.270;11.368;2023-06-22T09:03:41;20.50;;;7.20;;
68989;SDS011;56046;47.270;11.368;2023-06-22T09:06:06;18.55;;;6.93;;
68989;SDS011;56046;47.270;11.368;2023-06-22T09:08:34;19.55;;;9.05;;
68989;SDS011;56046;47.270;11.368;2023-06-22T09:10:59;18.43;;;8.37;;
68989;SDS011;56046;47.270;11.368;2023-06-22T09:13:24;21.27;;;9.47;;
68989;SDS011;56046;47.270;11.368;2023-06-22T09:15:50;20.70;;;8.10;;
68989;SDS011;56046;47.270;11.368;2023-06-22T09:18:15;17.17;;;6.40;;
68989;SDS011;56046;47.270;11.368;2023-06-22T09:20:40;20.00;;;6.70;;
68989;SDS011;56046;47.270;11.368;2023-06-22T09:23:06;14.73;;;7.30;;
68989;SDS011;56046;47.270;11.368;2023-06-22T09:25:31;21.87;;;9.30;;
68989;SDS011;56046;47.270;11.368;2023-06-22T09:27:56;21.13;;;10.33;;
68989;SDS011;56046;47.270;11.368;2023-06-22T09:30:22;19.83;;;10.30;;
68989;SDS011;56046;47.270;11.368;2023-06-22T09:32:47;17.77;;;9.87;;
68989;SDS011;56046;47.270;11.368;2023-06-22T09:35:12;18.03;;;10.97;;
68989;SDS011;56046;47.270;11.368;2023-06-22T09:37:38;18.73;;;9.43;;
68989;SDS011;56046;47.270;11.368;2023-06-22T09:40:03;21.53;;;9.57;;
68989;SDS011;56046;47.270;11.368;2023-06-22T09:42:36;22.70;;;9.57;;
68989;SDS011;56046;47.270;11.368;2023-06-22T09:45:01;20.05;;;9.15;;
68989;SDS011;56046;47.270;11.368;2023-06-22T09:47:27;15.80;;;7.60;;
68989;SDS011;56046;47.270;11.368;2023-06-22T09:49:52;16.13;;;8.50;;
68989;SDS011;56046;47.270;11.368;2023-06-22T09:52:20;19.80;;;8.23;;
68989;SDS011;56046;47.270;11.368;2023-06-22T09:54:45;20.30;;;7.80;;
68989;SDS011;56046;47.270;11.368;2023-06-22T09:57:10;17.47;;;8.07;;
68989;SDS011;56046;47.270;11.368;2023-06-22T09:59:36;19.60;;;8.50;;
68989;SDS011;56046;47.270;11.368;2023-06-22T10:02:01;17.27;;;7.40;;
68989;SDS011;56046;47.270;11.368;2023-06-22T10:04:26;20.40;;;8.37;;
68989;SDS011;56046;47.270;11.368;2023-06-22T10:06:52;18.27;;;7.27;;
68989;SDS011;56046;47.270;11.368;2023-06-22T10:09:17;13.93;;;7.17;;
68989;SDS011;56046;47.270;11.368;2023-06-22T10:11:42;14.60;;;7.27;;
68989;SDS011;56046;47.270;11.368;2023-06-22T10:14:07;15.70;;;5.83;;
68989;SDS011;56046;47.270;11.368;2023-06-22T10:16:33;14.97;;;5.27;;
68989;SDS011;56046;47.270;11.368;2023-06-22T10:19:00;18.73;;;5.83;;
68989;SDS011;56046;47.270;11.368;2023-06-22T10:21:25;16.08;;;5.57;;
68989;SDS011;56046;47.270;11.368;2023-06-22T10:23:52;18.67;;;5.80;;
68989;SDS011;56046;47.270;11.368;2023-06-22T10:26:17;19.85;;;5.38;;
68989;SDS011;56046;47.270;11.368;2023-06-22T10:28:42;18.63;;;4.83;;
68989;SDS011;56046;47.270;11.368;2023-06-22T10:31:08;17.07;;;6.30;;
68989;SDS011;56046;47.270;11.368;2023-06-22T10:33:33;17.93;;;7.40;;
68989;SDS011;56046;47.270;11.368;2023-06-22T10:35:58;18.17;;;7.20;;
68989;SDS011;56046;47.270;11.368;2023-06-22T10:38:25;15.93;;;6.38;;
68989;SDS011;56046;47.270;11.368;2023-06-22T10:40:50;20.13;;;7.03;;
68989;SDS011;56046;47.270;11.368;2023-06-22T10:43:15;17.53;;;7.00;;
68989;SDS011;56046;47.270;11.368;2023-06-22T10:45:41;15.30;;;6.87;;
68989;SDS011;56046;47.270;11.368;2023-06-22T10:48:06;15.73;;;6.17;;
68989;SDS011;56046;47.270;11.368;2023-06-22T10:50:31;16.73;;;6.30;;
68989;SDS011;56046;47.270;11.368;2023-06-22T10:52:57;17.58;;;5.70;;
68989;SDS011;56046;47.270;11.368;2023-06-22T10:55:22;15.77;;;5.83;;
68989;SDS011;56046;47.270;11.368;2023-06-22T10:57:47;13.63;;;6.23;;
68989;SDS011;56046;47.270;11.368;2023-06-22T11:00:13;41.67;;;7.70;;
68989;SDS011;56046;47.270;11.368;2023-06-22T11:02:38;23.87;;;6.40;;
68989;SDS011;56046;47.270;11.368;2023-06-22T11:05:04;19.43;;;6.77;;
68989;SDS011;56046;47.270;11.368;2023-06-22T11:07:29;17.45;;;7.72;;
68989;SDS011;56046;47.270;11.368;2023-06-22T11:09:55;40.30;;;8.90;;
68989;SDS011;56046;47.270;11.368;2023-06-22T11:12:20;18.20;;;8.13;;
68989;SDS011;56046;47.270;11.368;2023-06-22T11:14:45;24.00;;;7.80;;
68989;SDS011;56046;47.270;11.368;2023-06-22T11:17:11;16.48;;;6.68;;
68989;SDS011;56046;47.270;11.368;2023-06-22T11:19:36;18.63;;;7.43;;
68989;SDS011;56046;47.270;11.368;2023-06-22T11:22:01;16.57;;;6.40;;
68989;SDS011;56046;47.270;11.368;2023-06-22T11:24:27;19.77;;;7.00;;
68989;SDS011;56046;47.270;11.368;2023-06-22T11:26:52;19.90;;;7.13;;
68989;SDS011;56046;47.270;11.368;2023-06-22T11:29:17;19.00;;;6.80;;
68989;SDS011;56046;47.270;11.368;2023-06-22T11:31:42;20.10;;;7.13;;
68989;SDS011;56046;47.270;11.368;2023-06-22T11:34:08;17.63;;;7.00;;
68989;SDS011;56046;47.270;11.368;2023-06-22T11:36:33;19.40;;;6.77;;
68989;SDS011;56046;47.270;11.368;2023-06-22T11:39:00;18.00;;;8.00;;
68989;SDS011;56046;47.270;11.368;2023-06-22T11:41:26;16.02;;;7.30;;
68989;SDS011;56046;47.270;11.368;2023-06-22T11:43:51;23.13;;;8.60;;
68989;SDS011;56046;47.270;11.368;2023-06-22T11:46:16;18.80;;;8.40;;
68989;SDS011;56046;47.270;11.368;2023-06-22T11:48:41;21.93;;;9.10;;
68989;SDS011;56046;47.270;11.368;2023-06-22T11:51:07;19.07;;;8.70;;
68989;SDS011;56046;47.270;11.368;2023-06-22T11:53:33;21.08;;;8.30;;
68989;SDS011;56046;47.270;11.368;2023-06-22T11:56:00;16.65;;;8.25;;
68989;SDS011;56046;47.270;11.368;2023-06-22T11:58:26;18.70;;;8.13;;
68989;SDS011;56046;47.270;11.368;2023-06-22T12:00:51;16.67;;;7.87;;
68989;SDS011;56046;47.270;11.368;2023-06-22T12:03:17;18.87;;;7.97;;
68989;SDS011;56046;47.270;11.368;2023-06-22T12:05:42;20.03;;;7.07;;
68989;SDS011;56046;47.270;11.368;2023-06-22T12:08:07;23.87;;;7.60;;
68989;SDS011;56046;47.270;11.368;2023-06-22T12:10:33;18.67;;;7.67;;
68989;SDS011;56046;47.270;11.368;2023-06-22T12:12:58;18.30;;;6.20;;
68989;SDS011;56046;47.270;11.368;2023-06-22T12:15:24;18.77;;;6.32;;
68989;SDS011;56046;47.270;11.368;2023-06-22T12:17:50;17.07;;;6.63;;
68989;SDS011;56046;47.270;11.368;2023-06-22T12:20:15;24.07;;;7.60;;
68989;SDS011;56046;47.270;11.368;2023-06-22T12:22:40;20.07;;;7.83;;
68989;SDS011;56046;47.270;11.368;2023-06-22T12:25:06;21.25;;;7.05;;
68989;SDS011;56046;47.270;11.368;2023-06-22T12:27:32;19.87;;;8.87;;
68989;SDS011;56046;47.270;11.368;2023-06-22T12:29:57;19.45;;;6.57;;
68989;SDS011;56046;47.270;11.368;2023-06-22T12:32:22;18.13;;;4.67;;
68989;SDS011;56046;47.270;11.368;2023-06-22T12:34:47;18.00;;;4.80;;
68989;SDS011;56046;47.270;11.368;2023-06-22T12:37:13;20.40;;;4.33;;
68989;SDS011;56046;47.270;11.368;2023-06-22T12:39:40;16.40;;;5.60;;
68989;SDS011;56046;47.270;11.368;2023-06-22T12:42:05;19.23;;;5.35;;
68989;SDS011;56046;47.270;11.368;2023-06-22T12:44:33;15.95;;;5.32;;
68989;SDS011;56046;47.270;11.368;2023-06-22T12:46:58;16.73;;;5.77;;
68989;SDS011;56046;47.270;11.368;2023-06-22T12:49:24;14.20;;;5.53;;
68989;SDS011;56046;47.270;11.368;2023-06-22T12:51:49;16.60;;;4.63;;
68989;SDS011;56046;47.270;11.368;2023-06-22T12:54:14;16.13;;;4.50;;
68989;SDS011;56046;47.270;11.368;2023-06-22T12:56:39;15.47;;;4.30;;
68989;SDS011;56046;47.270;11.368;2023-06-22T12:59:05;18.25;;;4.97;;
68989;SDS011;56046;47.270;11.368;2023-06-22T13:01:31;16.03;;;5.30;;
68989;SDS011;56046;47.270;11.368;2023-06-22T13:03:57;18.67;;;4.65;;
68989;SDS011;56046;47.270;11.368;2023-06-22T13:06:22;17.10;;;6.30;;
68989;SDS011;56046;47.270;11.368;2023-06-22T13:08:47;11.53;;;4.37;;
68989;SDS011;56046;47.270;11.368;2023-06-22T13:11:13;17.83;;;5.10;;
68989;SDS011;56046;47.270;11.368;2023-06-22T13:13:38;15.83;;;4.97;;
68989;SDS011;56046;47.270;11.368;2023-06-22T13:16:04;20.30;;;5.47;;
68989;SDS011;56046;47.270;11.368;2023-06-22T13:18:29;20.37;;;4.87;;
68989;SDS011;56046;47.270;11.368;2023-06-22T13:20:54;19.13;;;5.30;;
68989;SDS011;56046;47.270;11.368;2023-06-22T13:23:20;17.13;;;5.03;;
68989;SDS011;56046;47.270;11.368;2023-06-22T13:25:46;18.73;;;5.18;;
68989;SDS011;56046;47.270;11.368;2023-06-22T13:28:11;16.40;;;4.77;;
68989;SDS011;56046;47.270;11.368;2023-06-22T13:30:38;24.90;;;5.55;;
68989;SDS011;56046;47.270;11.368;2023-06-22T13:33:03;24.87;;;5.13;;
68989;SDS011;56046;47.270;11.368;2023-06-22T13:35:29;20.47;;;5.33;;
68989;SDS011;56046;47.270;11.368;2023-06-22T13:37:54;21.53;;;5.67;;
68989;SDS011;56046;47.270;11.368;2023-06-22T13:40:19;22.37;;;5.57;;
68989;SDS011;56046;47.270;11.368;2023-06-22T13:42:44;21.30;;;6.25;;
68989;SDS011;56046;47.270;11.368;2023-06-22T13:45:10;24.47;;;5.40;;
68989;SDS011;56046;47.270;11.368;2023-06-22T13:47:35;18.33;;;4.93;;
68989;SDS011;56046;47.270;11.368;2023-06-22T13:50:00;22.83;;;5.20;;
68989;SDS011;56046;47.270;11.368;2023-06-22T13:52:26;19.40;;;5.37;;
68989;SDS011;56046;47.270;11.368;2023-06-22T13:54:51;23.70;;;5.27;;
68989;SDS011;56046;47.270;11.368;2023-06-22T13:57:16;21.47;;;5.17;;
68989;SDS011;56046;47.270;11.368;2023-06-22T13:59:41;18.73;;;4.63;;
68989;SDS011;56046;47.270;11.368;2023-06-22T14:02:07;23.30;;;5.47;;
68989;SDS011;56046;47.270;11.368;2023-06-22T14:04:32;18.87;;;5.37;;
68989;SDS011;56046;47.270;11.368;2023-06-22T14:06:57;23.53;;;5.37;;
68989;SDS011;56046;47.270;11.368;2023-06-22T14:09:22;20.63;;;5.07;;
68989;SDS011;56046;47.270;11.368;2023-06-22T14:11:48;24.10;;;5.50;;
68989;SDS011;56046;47.270;11.368;2023-06-22T14:14:13;25.20;;;6.13;;
68989;SDS011;56046;47.270;11.368;2023-06-22T14:16:38;19.13;;;5.20;;